Terminal Aerodrome Forecast
Issued by NWS Sterling, VA

Current Version | Previous Version | Graphics & Text | Print | Product List | Glossary On
Versions: 1 2 3 4 5 6 7 8 9 10 11 12 13 14
000
FTUS41 KLWX 231700
TAFMRB
TAF
KMRB 231735Z 2318/2418 23006KT P6SM SCT040
     FM231900 24007KT P6SM BKN040
     FM232000 24007KT P6SM VCTS BKN040CB
     FM232300 28006KT 6SM -TSRA BKN040CB
     FM240200 30004KT P6SM VCTS BKN040CB BKN080
     FM240600 33006KT 6SM -SHRA VCTS BKN040CB OVC080
     FM241000 35006KT P6SM BKN040 OVC080=

USA.gov is the U.S. government's official web portal to all federal, state and local government web resources and services.